Time;durP1;ratioP1;P1;durP2;ratioP2;P2;SDS_P1;SDS_P2;PMS_P1;PMS_P2;Temp;Humidity;BMP_temperature;BMP_pressure;BME280_temperature;BME280_humidity;BME280_pressure;Samples;Min_cycle;Max_cycle;Signal;HPM_P1;HPM_P2
2022/07/06 00:00:22;;;;;;;3.03;2.83;;;;;;;25.42;63.14;99314.59;5071786;28;20192;-67
2022/07/06 00:02:49;;;;;;;4.00;3.53;;;;;;;25.33;63.64;99317.25;5072412;28;20199;-66
2022/07/06 00:05:16;;;;;;;3.83;3.30;;;;;;;25.23;63.71;99319.88;5072398;28;20211;-66
2022/07/06 00:07:43;;;;;;;3.67;3.00;;;;;;;24.98;65.43;99316.03;5072299;28;20225;-67
2022/07/06 00:10:10;;;;;;;6.67;3.77;;;;;;;24.90;65.97;99326.41;5072171;28;20204;-67
2022/07/06 00:12:38;;;;;;;3.67;3.37;;;;;;;24.82;66.21;99326.25;5072344;28;20214;-67
2022/07/06 00:15:06;;;;;;;4.13;3.93;;;;;;;24.73;66.55;99313.94;5072131;28;20309;-66
2022/07/06 00:17:32;;;;;;;3.77;3.50;;;;;;;24.78;66.83;99324.81;5071697;28;20203;-67
2022/07/06 00:19:59;;;;;;;4.03;3.70;;;;;;;24.79;66.16;99321.25;5072013;28;20192;-66
2022/07/06 00:22:26;;;;;;;3.50;3.33;;;;;;;24.82;66.54;99318.38;5069351;28;20196;-67
2022/07/06 00:24:53;;;;;;;3.57;3.33;;;;;;;24.84;66.90;99308.59;5072157;28;20196;-67
2022/07/06 00:27:20;;;;;;;3.50;3.20;;;;;;;24.81;67.10;99297.53;5070021;28;20599;-67
2022/07/06 00:29:48;;;;;;;3.67;3.37;;;;;;;24.93;67.82;99305.13;5071325;28;20204;-66
2022/07/06 00:32:15;;;;;;;2.90;2.70;;;;;;;24.98;68.17;99292.41;5068966;28;20208;-66
2022/07/06 00:34:42;;;;;;;3.57;2.80;;;;;;;25.02;68.52;99298.22;5072001;28;20552;-66
2022/07/06 00:37:09;;;;;;;2.80;2.70;;;;;;;24.95;68.91;99276.97;5071639;28;20692;-66
2022/07/06 00:39:36;;;;;;;6.47;3.70;;;;;;;25.04;69.26;99289.25;5071669;28;20207;-67
2022/07/06 00:42:03;;;;;;;3.17;2.97;;;;;;;25.10;69.17;99279.16;5071880;28;20667;-66
2022/07/06 00:44:32;;;;;;;3.00;2.80;;;;;;;25.13;69.46;99273.63;5071784;28;20205;-67
2022/07/06 00:47:00;;;;;;;3.50;3.27;;;;;;;25.18;70.39;99268.78;5071635;28;20200;-67
2022/07/06 00:52:13;;;;;;;3.03;2.93;;;;;;;25.22;70.09;99264.91;5045960;28;20695;-67
2022/07/06 00:54:42;;;;;;;4.37;2.90;;;;;;;25.20;69.81;99259.00;5071814;28;20762;-66
2022/07/06 00:57:09;;;;;;;2.90;2.77;;;;;;;25.17;71.07;99248.78;5071452;28;20702;-67
2022/07/06 00:59:36;;;;;;;3.27;3.00;;;;;;;25.16;70.44;99247.13;5071343;28;20200;-67
2022/07/06 01:02:04;;;;;;;3.93;3.33;;;;;;;25.05;72.32;99241.06;5070851;28;20196;-67
2022/07/06 01:04:31;;;;;;;3.33;2.90;;;;;;;24.93;73.24;99236.13;5070487;28;20683;-67
2022/07/06 01:06:58;;;;;;;3.57;3.37;;;;;;;24.89;72.28;99230.31;5070563;28;20203;-66
2022/07/06 01:09:25;;;;;;;3.60;3.43;;;;;;;24.87;72.36;99221.78;5070677;28;20208;-67
2022/07/06 01:11:53;;;;;;;4.30;3.90;;;;;;;24.76;72.39;99227.13;5070410;28;20682;-66
2022/07/06 01:14:21;;;;;;;4.27;3.87;;;;;;;24.58;72.73;99226.19;5069667;28;20207;-66
2022/07/06 01:16:48;;;;;;;8.33;4.07;;;;;;;24.47;73.39;99215.84;5069353;28;20192;-66
2022/07/06 01:19:17;;;;;;;4.80;4.40;;;;;;;24.36;73.89;99200.28;5070416;28;20192;-67
2022/07/06 01:21:45;;;;;;;4.00;3.80;;;;;;;24.09;75.00;99177.34;5070267;28;20216;-67
2022/07/06 01:24:12;;;;;;;4.50;4.30;;;;;;;24.05;74.87;99187.25;5070485;28;20284;-67
2022/07/06 01:26:39;;;;;;;5.60;4.60;;;;;;;24.02;75.18;99192.78;5069257;28;20239;-66
2022/07/06 01:29:06;;;;;;;4.97;4.57;;;;;;;24.04;75.29;99185.59;5069654;28;20231;-66
2022/07/06 01:31:33;;;;;;;4.07;3.90;;;;;;;24.06;75.13;99188.09;5070396;28;20212;-66
2022/07/06 01:34:01;;;;;;;5.30;4.97;;;;;;;24.13;75.14;99191.84;5069658;28;20192;-66
2022/07/06 01:36:28;;;;;;;5.23;4.80;;;;;;;24.18;74.58;99191.44;5069139;28;20207;-66
2022/07/06 01:38:58;;;;;;;4.97;4.60;;;;;;;24.20;74.26;99181.66;5065566;28;20234;-66
2022/07/06 01:41:25;;;;;;;4.80;4.50;;;;;;;24.26;73.92;99181.09;5068333;28;20193;-66
2022/07/06 01:43:52;;;;;;;4.63;4.43;;;;;;;24.26;73.85;99175.88;5069167;28;20440;-66
2022/07/06 01:46:19;;;;;;;4.37;4.17;;;;;;;24.31;73.30;99171.03;5069163;28;20215;-66
2022/07/06 01:48:47;;;;;;;4.20;3.90;;;;;;;24.29;73.94;99168.56;5069166;28;20212;-66
2022/07/06 01:51:14;;;;;;;7.60;4.23;;;;;;;24.30;73.24;99161.50;5070235;28;20249;-66
2022/07/06 01:53:41;;;;;;;4.17;3.97;;;;;;;24.26;73.10;99157.53;5070703;28;20660;-66
2022/07/06 01:56:10;;;;;;;5.80;4.50;;;;;;;24.25;73.50;99146.22;5068412;28;20200;-66
2022/07/06 01:58:37;;;;;;;4.23;4.03;;;;;;;24.24;73.33;99139.31;5069932;28;20207;-66
2022/07/06 02:01:08;;;;;;;5.17;4.00;;;;;;;24.24;73.38;99138.47;5070632;28;20203;-66
2022/07/06 02:03:35;;;;;;;4.53;3.73;;;;;;;24.24;73.50;99131.47;5068219;28;20222;-66
2022/07/06 02:06:03;;;;;;;5.00;4.70;;;;;;;24.25;73.35;99140.16;5070115;28;20671;-66
2022/07/06 02:08:30;;;;;;;4.67;4.30;;;;;;;24.25;73.33;99132.28;5070439;28;20231;-66
2022/07/06 02:10:57;;;;;;;3.90;3.60;;;;;;;24.21;73.90;99133.53;5070163;28;20584;-66
2022/07/06 02:13:25;;;;;;;4.47;4.17;;;;;;;24.12;73.94;99124.72;5070150;28;20199;-66
2022/07/06 02:15:52;;;;;;;5.10;4.07;;;;;;;23.97;74.51;99126.06;5074802;28;21636;-66
2022/07/06 02:18:19;;;;;;;4.23;3.93;;;;;;;23.96;74.62;99146.19;5072313;28;20632;-66
2022/07/06 02:20:46;;;;;;;4.50;4.20;;;;;;;23.91;75.37;99142.34;5073846;28;20200;-66
2022/07/06 02:23:13;;;;;;;4.27;3.50;;;;;;;23.88;75.24;99146.03;5073131;28;20619;-66
2022/07/06 02:25:40;;;;;;;4.73;4.43;;;;;;;23.83;74.93;99145.63;5073497;28;20683;-66
2022/07/06 02:28:07;;;;;;;5.07;4.70;;;;;;;23.79;75.24;99146.84;5072599;28;20207;-66
2022/07/06 02:30:35;;;;;;;4.07;3.87;;;;;;;23.79;75.70;99149.47;5073444;28;20253;-66
2022/07/06 02:33:02;;;;;;;5.07;4.67;;;;;;;23.76;75.90;99141.88;5072862;28;20723;-66
2022/07/06 02:35:28;;;;;;;4.70;4.40;;;;;;;23.82;76.01;99153.59;5074364;28;20664;-66
2022/07/06 02:37:55;;;;;;;4.90;4.53;;;;;;;23.82;76.32;99149.19;5074011;28;20207;-66
2022/07/06 02:40:22;;;;;;;5.80;4.17;;;;;;;23.82;75.79;99149.19;5073638;28;20713;-66
2022/07/06 02:42:49;;;;;;;4.20;3.97;;;;;;;23.83;76.07;99156.09;5073897;28;20207;-66
2022/07/06 02:45:16;;;;;;;4.40;4.10;;;;;;;23.80;76.22;99160.75;5073879;28;20588;-66
2022/07/06 02:47:44;;;;;;;4.63;4.23;;;;;;;23.76;76.97;99160.22;5070616;28;20208;-66
2022/07/06 02:50:11;;;;;;;4.33;3.93;;;;;;;23.72;77.04;99153.56;5073517;28;20219;-66
2022/07/06 02:52:38;;;;;;;4.90;4.50;;;;;;;23.65;77.52;99162.13;5073601;28;20207;-66
2022/07/06 02:55:05;;;;;;;4.57;4.17;;;;;;;23.63;77.93;99170.09;5074038;28;20200;-66
2022/07/06 02:57:32;;;;;;;4.73;4.43;;;;;;;23.60;77.83;99159.91;5073380;28;20192;-66
2022/07/06 02:59:59;;;;;;;5.10;4.60;;;;;;;23.55;77.97;99167.34;5073971;28;20192;-66
2022/07/06 03:02:26;;;;;;;4.63;4.27;;;;;;;23.55;77.88;99167.34;5072384;28;20196;-66
2022/07/06 03:04:54;;;;;;;4.50;4.13;;;;;;;23.54;77.90;99157.81;5073700;28;20207;-66
2022/07/06 03:07:21;;;;;;;4.03;3.77;;;;;;;23.57;77.97;99160.16;5073420;28;20200;-66
2022/07/06 03:09:47;;;;;;;8.43;5.03;;;;;;;23.56;77.92;99163.72;5071559;28;20212;-66
2022/07/06 03:12:15;;;;;;;4.73;4.43;;;;;;;23.55;78.34;99166.50;5073912;28;20664;-68
2022/07/06 03:14:42;;;;;;;4.50;4.10;;;;;;;23.54;78.25;99170.91;5073135;28;20257;-66
2022/07/06 03:17:09;;;;;;;4.40;4.20;;;;;;;23.44;78.75;99170.88;5073460;28;20203;-66
2022/07/06 03:19:36;;;;;;;5.37;4.57;;;;;;;23.40;78.86;99168.63;5072272;28;20200;-66
2022/07/06 03:22:05;;;;;;;4.47;3.97;;;;;;;23.40;79.22;99166.03;5073101;28;20207;-66
2022/07/06 03:24:31;;;;;;;4.80;4.37;;;;;;;23.40;79.82;99168.63;5069528;28;20218;-66
2022/07/06 03:26:58;;;;;;;4.40;4.07;;;;;;;23.41;79.69;99170.31;5072135;28;20607;-66
2022/07/06 03:29:25;;;;;;;4.70;4.40;;;;;;;23.39;80.04;99177.44;5071140;28;20219;-67
2022/07/06 03:31:55;;;;;;;8.87;4.90;;;;;;;23.34;80.46;99169.16;5072712;28;20204;-66
2022/07/06 03:34:22;;;;;;;6.07;5.67;;;;;;;23.37;80.52;99169.72;5071767;28;20671;-66
2022/07/06 03:36:48;;;;;;;3.87;3.67;;;;;;;23.38;80.92;99176.59;5072330;28;20207;-66
2022/07/06 03:39:17;;;;;;;4.20;4.00;;;;;;;23.34;81.60;99163.91;5073095;28;20199;-66
2022/07/06 03:41:43;;;;;;;4.70;4.40;;;;;;;23.46;81.72;99178.56;5072395;28;20212;-67
2022/07/06 03:44:10;;;;;;;5.17;4.87;;;;;;;23.45;82.15;99174.31;5071400;28;20283;-66
2022/07/06 03:46:37;;;;;;;4.53;4.30;;;;;;;23.54;82.15;99194.44;5072092;28;20203;-66
2022/07/06 03:49:04;;;;;;;5.20;4.90;;;;;;;23.36;83.77;99196.03;5072677;28;20219;-66
2022/07/06 03:51:31;;;;;;;5.57;5.27;;;;;;;23.35;83.34;99191.75;5070990;28;20684;-66
2022/07/06 03:53:57;;;;;;;26.57;6.10;;;;;;;23.36;84.11;99203.88;5070599;28;20200;-67
2022/07/06 03:56:28;;;;;;;8.67;4.67;;;;;;;23.34;85.22;99201.38;5070969;28;20688;-66
2022/07/06 03:58:55;;;;;;;8.67;5.80;;;;;;;23.34;85.49;99201.38;5070629;28;20656;-66
2022/07/06 04:01:22;;;;;;;9.17;6.23;;;;;;;23.43;84.79;99194.53;5070829;28;20222;-67
2022/07/06 04:03:49;;;;;;;13.30;6.07;;;;;;;23.44;83.77;99181.34;5070573;28;20200;-66
2022/07/06 04:06:16;;;;;;;6.87;6.23;;;;;;;23.60;83.77;99186.06;5070946;28;20196;-67
2022/07/06 04:08:43;;;;;;;10.67;5.97;;;;;;;23.83;84.62;99194.53;5072182;28;20196;-67
2022/07/06 04:11:10;;;;;;;7.10;6.50;;;;;;;23.86;84.80;99197.72;5070646;28;20200;-67
2022/07/06 04:13:39;;;;;;;6.97;6.47;;;;;;;23.75;84.26;99169.00;5072572;28;20196;-67
2022/07/06 04:16:06;;;;;;;10.47;6.63;;;;;;;23.92;84.73;99196.31;5072154;28;20687;-67
2022/07/06 04:18:33;;;;;;;6.77;6.17;;;;;;;24.01;83.86;99198.97;5071976;28;20672;-67
2022/07/06 04:21:02;;;;;;;6.60;6.17;;;;;;;24.07;85.09;99194.16;5070711;28;20197;-66
2022/07/06 04:23:28;;;;;;;6.93;5.80;;;;;;;24.14;84.07;99203.97;5071486;28;20219;-67
2022/07/06 04:25:55;;;;;;;7.53;6.97;;;;;;;24.25;83.86;99208.25;5071228;28;20227;-67
2022/07/06 04:28:22;;;;;;;12.67;6.70;;;;;;;24.35;83.32;99199.44;5071886;28;20196;-67
2022/07/06 04:30:50;;;;;;;6.00;5.60;;;;;;;24.52;83.25;99197.94;5071795;28;20216;-67
2022/07/06 04:33:17;;;;;;;6.63;6.13;;;;;;;24.63;82.29;99192.53;5071190;28;20192;-67
2022/07/06 04:35:44;;;;;;;6.43;6.03;;;;;;;24.74;82.89;99192.38;5071710;28;20210;-67
2022/07/06 04:38:11;;;;;;;7.00;6.40;;;;;;;24.81;81.42;99196.09;5071075;28;20196;-67
2022/07/06 04:40:38;;;;;;;8.03;7.40;;;;;;;24.86;81.95;99198.31;5071347;28;20684;-67
2022/07/06 04:43:06;;;;;;;8.60;7.63;;;;;;;24.89;82.98;99192.78;5071595;28;20196;-67
2022/07/06 04:45:33;;;;;;;9.13;6.80;;;;;;;24.95;82.61;99197.47;5070711;28;20298;-67
2022/07/06 04:48:01;;;;;;;7.37;6.97;;;;;;;25.03;83.89;99201.03;5071215;28;20737;-67
2022/07/06 04:50:28;;;;;;;6.70;6.33;;;;;;;25.17;85.15;99196.31;5071296;28;20216;-67
2022/07/06 04:52:55;;;;;;;7.23;6.77;;;;;;;25.36;84.28;99196.22;5068931;28;20664;-67
2022/07/06 04:55:21;;;;;;;7.27;6.63;;;;;;;25.54;83.80;99205.00;5070975;28;20204;-67
2022/07/06 04:57:48;;;;;;;6.83;6.37;;;;;;;25.65;84.34;99207.47;5071225;28;20203;-67
2022/07/06 05:00:22;;;;;;;7.60;6.90;;;;;;;25.69;81.72;99198.28;5071527;28;20283;-67
2022/07/06 05:02:48;;;;;;;7.37;6.97;;;;;;;25.92;82.91;99206.59;5070872;28;20196;-67
2022/07/06 05:05:17;;;;;;;6.90;6.30;;;;;;;26.13;82.65;99208.97;5070820;28;20201;-67
2022/07/06 05:07:43;;;;;;;6.27;5.97;;;;;;;26.18;81.92;99183.06;5071274;28;20246;-67
2022/07/06 05:10:15;;;;;;;6.90;6.30;;;;;;;26.39;81.48;99196.75;5070518;28;20227;-67
2022/07/06 05:12:45;;;;;;;10.03;6.93;;;;;;;26.48;80.73;99196.66;5071246;28;20643;-67
2022/07/06 05:15:12;;;;;;;8.10;7.33;;;;;;;26.66;83.20;99212.41;5070529;28;20196;-67
2022/07/06 05:17:39;;;;;;;6.90;6.60;;;;;;;26.70;82.69;99207.66;5069101;28;20798;-67
2022/07/06 05:20:07;;;;;;;7.10;6.03;;;;;;;26.71;80.53;99211.97;5069644;28;20211;-67
2022/07/06 05:22:36;;;;;;;6.93;6.53;;;;;;;26.77;79.91;99216.59;5070556;28;20203;-69
2022/07/06 05:25:03;;;;;;;6.77;6.47;;;;;;;26.75;80.94;99224.66;5070181;28;20196;-69
2022/07/06 05:27:29;;;;;;;7.87;7.37;;;;;;;26.74;80.81;99233.53;5068878;28;20235;-69
2022/07/06 05:29:56;;;;;;;6.57;6.27;;;;;;;26.75;81.50;99224.66;5070565;28;20250;-67
2022/07/06 05:32:23;;;;;;;6.47;6.03;;;;;;;26.84;80.54;99229.03;5070137;28;20207;-69
2022/07/06 05:34:51;;;;;;;7.83;7.30;;;;;;;26.86;79.64;99227.06;5070308;28;20204;-69
2022/07/06 05:37:18;;;;;;;7.20;6.60;;;;;;;26.90;80.39;99228.41;5070306;28;20207;-69
2022/07/06 05:39:47;;;;;;;6.37;6.07;;;;;;;27.03;79.56;99234.09;5070526;28;20196;-69
2022/07/06 05:42:14;;;;;;;7.30;6.83;;;;;;;27.02;78.00;99232.44;5069477;28;20277;-67
2022/07/06 05:44:40;;;;;;;7.53;7.13;;;;;;;27.13;77.21;99239.25;5070593;28;20202;-67
2022/07/06 05:50:13;;;;;;;6.63;6.23;;;;;;;27.14;78.70;99236.44;5069772;28;20226;-67
2022/07/06 05:52:40;;;;;;;9.70;7.23;;;;;;;27.45;77.04;99243.91;5061233;28;20206;-66
2022/07/06 05:55:11;;;;;;;7.93;6.67;;;;;;;27.70;76.54;99242.19;5066413;28;20257;-68
2022/07/06 05:57:38;;;;;;;6.20;5.80;;;;;;;27.78;74.94;99244.88;5069697;28;20200;-68
2022/07/06 06:00:06;;;;;;;5.93;5.53;;;;;;;27.84;73.69;99242.44;5067207;28;20205;-67
2022/07/06 06:02:38;;;;;;;6.90;6.47;;;;;;;27.93;75.33;99246.75;5068248;28;20216;-67
2022/07/06 06:05:07;;;;;;;6.20;5.90;;;;;;;28.08;75.34;99245.16;5067051;28;20700;-69
2022/07/06 06:07:46;;;;;;;5.97;5.57;;;;;;;28.31;72.86;99241.91;5065773;28;20207;-70
2022/07/06 06:10:15;;;;;;;6.33;5.80;;;;;;;28.49;73.14;99246.06;5067174;28;20229;-69
2022/07/06 06:12:42;;;;;;;5.67;5.33;;;;;;;28.61;72.26;99249.19;5069148;28;20208;-72
2022/07/06 06:15:10;;;;;;;6.07;5.57;;;;;;;28.73;70.70;99252.34;5067890;28;20215;-70
2022/07/06 06:17:38;;;;;;;6.57;6.07;;;;;;;28.71;71.89;99249.06;5066666;28;20218;-71
2022/07/06 06:20:07;;;;;;;7.07;6.50;;;;;;;28.79;71.24;99255.16;5064461;28;20694;-72
2022/07/06 06:22:45;;;;;;;7.83;6.93;;;;;;;28.87;70.38;99257.81;5064784;28;20652;-72
2022/07/06 06:25:13;;;;;;;7.90;5.77;;;;;;;28.83;70.37;99267.03;5067897;28;20290;-72
2022/07/06 06:27:40;;;;;;;6.50;6.20;;;;;;;28.82;71.65;99261.94;5066924;28;20230;-72
2022/07/06 06:30:09;;;;;;;6.50;6.20;;;;;;;28.78;70.46;99266.72;5068064;28;20208;-71
2022/07/06 06:32:35;;;;;;;6.40;6.10;;;;;;;28.88;69.62;99262.09;5068599;28;20212;-72
2022/07/06 06:35:02;;;;;;;6.10;5.80;;;;;;;28.91;70.26;99245.09;5068636;28;20200;-72
2022/07/06 06:37:30;;;;;;;12.53;7.60;;;;;;;29.43;70.40;99250.81;5068747;28;20196;-70
2022/07/06 06:39:56;;;;;;;5.72;5.47;;;;;;;29.72;67.66;99255.50;5069268;28;20203;-70
2022/07/06 06:42:25;;;;;;;6.63;6.22;;;;;;;29.82;65.32;99261.41;5068983;28;20204;-71
2022/07/06 06:44:51;;;;;;;6.55;5.93;;;;;;;29.98;65.37;99264.84;5064932;28;20207;-71
2022/07/06 06:47:19;;;;;;;6.20;5.80;;;;;;;30.01;63.69;99256.56;5066366;28;20199;-71
2022/07/06 06:49:45;;;;;;;7.55;7.10;;;;;;;29.71;65.00;99267.88;5068869;28;20230;-68
2022/07/06 06:52:12;;;;;;;6.38;6.07;;;;;;;29.57;63.78;99260.66;5069577;28;20200;-70
2022/07/06 06:54:39;;;;;;;6.90;6.43;;;;;;;29.28;65.59;99257.75;5069140;28;20207;-70
2022/07/06 06:57:06;;;;;;;6.63;6.33;;;;;;;28.74;67.11;99259.28;5067890;28;20207;-69
2022/07/06 06:59:34;;;;;;;7.43;6.90;;;;;;;28.50;68.69;99257.41;5069837;28;20199;-69
2022/07/06 07:02:01;;;;;;;24.60;8.20;;;;;;;28.28;69.16;99243.06;5068210;28;20212;-69
2022/07/06 07:04:29;;;;;;;6.87;6.57;;;;;;;28.12;70.47;99250.94;5071509;28;20204;-68
2022/07/06 07:06:56;;;;;;;7.70;7.10;;;;;;;27.97;70.62;99245.44;5067974;28;20208;-70
2022/07/06 07:09:22;;;;;;;8.80;7.63;;;;;;;28.00;70.97;99250.41;5070452;28;20667;-69
2022/07/06 07:11:49;;;;;;;13.43;7.40;;;;;;;28.05;70.87;99248.13;5067752;28;20243;-70
2022/07/06 07:14:16;;;;;;;8.60;8.00;;;;;;;27.82;71.49;99241.75;5067004;28;20204;-71
2022/07/06 07:16:44;;;;;;;8.73;8.17;;;;;;;27.61;71.57;99241.34;5070005;28;20208;-69
2022/07/06 07:19:11;;;;;;;11.17;7.90;;;;;;;27.42;72.24;99245.03;5065831;28;20680;-68
2022/07/06 07:21:38;;;;;;;7.87;7.57;;;;;;;27.41;72.94;99237.28;5067037;28;20211;-71
2022/07/06 07:24:05;;;;;;;8.53;7.93;;;;;;;27.36;72.82;99244.81;5067180;28;20196;-70
2022/07/06 07:26:32;;;;;;;8.57;7.97;;;;;;;27.34;73.62;99247.59;5063742;28;20608;-71
2022/07/06 07:28:59;;;;;;;8.63;8.10;;;;;;;27.13;73.53;99244.53;5067604;28;20205;-68
2022/07/06 07:31:26;;;;;;;8.80;7.83;;;;;;;27.08;73.36;99231.81;5068812;28;20212;-70
2022/07/06 07:33:56;;;;;;;9.43;8.30;;;;;;;27.05;74.30;99242.66;5071446;28;20219;-71
2022/07/06 07:36:23;;;;;;;9.07;8.30;;;;;;;27.18;74.22;99241.41;5070189;28;20610;-68
2022/07/06 07:38:50;;;;;;;9.17;8.60;;;;;;;27.21;75.36;99241.09;5063600;28;20218;-70
2022/07/06 07:41:17;;;;;;;9.83;8.90;;;;;;;27.26;73.84;99238.84;5066689;28;20207;-70
2022/07/06 07:43:44;;;;;;;10.00;9.47;;;;;;;27.30;73.70;99245.44;5071189;28;20204;-71
2022/07/06 07:46:11;;;;;;;10.23;9.27;;;;;;;27.40;74.63;99246.97;5070409;28;20204;-68
2022/07/06 07:48:38;;;;;;;9.55;9.05;;;;;;;27.49;73.85;99246.09;5068731;28;20936;-63
2022/07/06 07:51:06;;;;;;;9.60;9.00;;;;;;;27.66;73.44;99246.97;5067556;28;20447;-66
2022/07/06 07:53:33;;;;;;;9.80;8.83;;;;;;;27.93;72.75;99249.38;5067663;28;20712;-66
2022/07/06 07:56:00;;;;;;;9.60;8.73;;;;;;;28.09;72.93;99249.47;5061427;28;20304;-63
2022/07/06 07:58:27;;;;;;;9.60;8.73;;;;;;;28.11;70.76;99242.19;5067228;28;20208;-62
2022/07/06 08:00:54;;;;;;;8.93;8.47;;;;;;;28.20;73.04;99245.69;5071787;28;20222;-64
2022/07/06 08:03:21;;;;;;;8.93;8.43;;;;;;;28.45;72.07;99239.47;5071461;28;20275;-64
2022/07/06 08:05:48;;;;;;;11.00;9.03;;;;;;;28.78;70.13;99237.69;5071041;28;20684;-64
2022/07/06 08:08:17;;;;;;;9.75;8.55;;;;;;;28.89;70.01;99236.50;5067436;28;20898;-64
2022/07/06 08:10:44;;;;;;;8.70;8.10;;;;;;;28.98;69.44;99244.25;5069846;28;20308;-63
2022/07/06 08:13:11;;;;;;;8.75;8.25;;;;;;;28.99;69.42;99238.00;5067459;28;20215;-65
2022/07/06 08:15:39;;;;;;;8.82;8.32;;;;;;;29.05;68.37;99242.59;5068715;28;20299;-63
2022/07/06 08:18:06;;;;;;;8.88;8.00;;;;;;;29.08;71.92;99233.53;5068665;28;20572;-64
2022/07/06 08:20:33;;;;;;;10.23;7.90;;;;;;;29.17;68.66;99229.88;5069102;28;20611;-64
2022/07/06 08:22:59;;;;;;;15.33;9.73;;;;;;;29.28;66.00;99231.34;5069933;28;20437;-68
2022/07/06 08:25:28;;;;;;;7.97;7.57;;;;;;;29.32;66.79;99224.75;5068588;28;20208;-69
2022/07/06 08:27:55;;;;;;;8.77;8.27;;;;;;;29.36;67.21;99234.00;5048818;28;20250;-69
2022/07/06 08:30:22;;;;;;;9.50;8.82;;;;;;;29.49;66.23;99229.00;5044736;28;20272;-68
2022/07/06 08:32:48;;;;;;;9.15;8.43;;;;;;;29.39;66.41;99228.38;5047799;28;20201;-66
2022/07/06 08:35:15;;;;;;;9.00;8.32;;;;;;;29.33;66.94;99227.25;5049209;28;20212;-67
2022/07/06 08:37:42;;;;;;;8.52;8.02;;;;;;;29.47;66.83;99230.97;5049218;28;20196;-67
2022/07/06 08:40:10;;;;;;;9.60;8.40;;;;;;;29.60;66.00;99231.25;5046862;28;20201;-69
2022/07/06 08:42:39;;;;;;;9.27;8.77;;;;;;;29.64;65.03;99232.56;5049102;28;20208;-69
2022/07/06 08:45:07;;;;;;;8.82;8.43;;;;;;;29.65;63.40;99234.22;5048516;28;20208;-68
2022/07/06 08:47:37;;;;;;;8.50;8.10;;;;;;;29.71;63.81;99233.53;5048660;28;20251;-68
2022/07/06 08:50:05;;;;;;;8.30;7.80;;;;;;;29.80;62.67;99243.06;5050246;28;20217;-68
2022/07/06 08:52:32;;;;;;;10.15;9.45;;;;;;;29.69;62.90;99230.25;5049962;28;20205;-68
2022/07/06 08:55:00;;;;;;;8.60;8.10;;;;;;;29.61;64.79;99233.72;5050076;28;20219;-67
2022/07/06 08:57:28;;;;;;;15.70;9.05;;;;;;;29.56;65.09;99229.97;5049086;28;20300;-66
2022/07/06 08:59:56;;;;;;;9.30;8.77;;;;;;;29.49;65.55;99218.44;5047840;28;20240;-66
2022/07/06 09:02:26;;;;;;;9.40;8.80;;;;;;;29.60;66.08;99231.25;5048636;28;20208;-66
2022/07/06 09:04:56;;;;;;;8.65;8.10;;;;;;;29.46;66.37;99229.34;5044849;28;20230;-66
2022/07/06 09:07:23;;;;;;;8.27;7.88;;;;;;;29.41;65.96;99229.00;5047296;28;20232;-66
2022/07/06 09:09:53;;;;;;;8.35;7.85;;;;;;;29.23;65.95;99231.84;5047045;28;20212;-66
2022/07/06 09:12:19;;;;;;;9.57;8.88;;;;;;;29.03;67.91;99231.41;5045695;28;20224;-68
2022/07/06 09:14:46;;;;;;;9.73;9.00;;;;;;;28.97;67.67;99233.88;5045408;28;20205;-66
2022/07/06 09:17:15;;;;;;;9.27;8.77;;;;;;;29.07;68.46;99240.63;5042226;28;20593;-66
2022/07/06 09:19:42;;;;;;;9.00;8.30;;;;;;;29.06;68.79;99238.97;5045969;28;20201;-67
2022/07/06 09:22:08;;;;;;;8.95;8.45;;;;;;;28.96;68.28;99248.88;5045166;28;20204;-67
2022/07/06 09:24:42;;;;;;;9.23;8.63;;;;;;;29.01;69.80;99245.75;5048678;28;20315;-69
2022/07/06 09:27:17;;;;;;;9.10;8.40;;;;;;;29.10;67.56;99232.38;5062794;28;20231;-69
2022/07/06 09:29:47;;;;;;;8.80;8.20;;;;;;;29.16;67.48;99239.63;5067950;28;20207;-69
2022/07/06 09:32:21;;;;;;;8.77;8.05;;;;;;;29.10;67.47;99232.38;5066233;28;20220;-69
2022/07/06 09:34:48;;;;;;;8.63;7.82;;;;;;;29.12;68.22;99233.03;5068540;28;20203;-69
2022/07/06 09:37:15;;;;;;;8.00;7.60;;;;;;;29.10;67.46;99248.22;5067346;28;20204;-69
2022/07/06 09:39:44;;;;;;;7.65;7.13;;;;;;;29.18;66.72;99226.22;5068294;28;20208;-68
2022/07/06 09:42:11;;;;;;;13.00;8.10;;;;;;;29.33;67.21;99239.63;5068712;28;20591;-69
2022/07/06 09:44:40;;;;;;;8.07;7.57;;;;;;;29.35;68.29;99232.34;5064800;28;20260;-67
2022/07/06 09:47:08;;;;;;;8.50;7.72;;;;;;;29.49;66.97;99218.44;5065834;28;20204;-67
2022/07/06 09:49:37;;;;;;;8.32;7.72;;;;;;;29.53;66.87;99227.66;5063449;28;20241;-67
2022/07/06 09:52:06;;;;;;;7.95;7.47;;;;;;;29.53;65.09;99215.25;5066413;28;20603;-67
2022/07/06 09:54:35;;;;;;;12.48;7.97;;;;;;;29.50;65.53;99218.25;5069606;28;20557;-67
2022/07/06 09:57:03;;;;;;;14.40;8.85;;;;;;;29.48;65.51;99216.78;5070361;28;20200;-68
2022/07/06 09:59:32;;;;;;;13.57;9.00;;;;;;;29.41;65.97;99192.03;5069850;28;20215;-67
2022/07/06 10:02:01;;;;;;;8.93;7.85;;;;;;;29.55;65.09;99213.28;5062189;28;20721;-68
2022/07/06 10:04:29;;;;;;;7.10;6.80;;;;;;;29.63;65.11;99204.47;5068208;28;20660;-67
2022/07/06 10:06:59;;;;;;;8.02;7.43;;;;;;;29.74;65.79;99206.75;5070006;28;20242;-67
2022/07/06 10:09:28;;;;;;;9.55;8.07;;;;;;;29.82;64.60;99201.44;5067816;28;20283;-67
2022/07/06 10:11:57;;;;;;;7.60;7.00;;;;;;;29.95;63.91;99209.63;5067230;28;20224;-67
2022/07/06 10:14:26;;;;;;;8.20;7.70;;;;;;;30.10;65.16;99201.78;5068588;28;20683;-68
2022/07/06 10:16:57;;;;;;;8.07;7.50;;;;;;;30.21;63.47;99204.84;5069986;28;20254;-68
2022/07/06 10:19:25;;;;;;;7.63;7.13;;;;;;;30.32;62.55;99197.50;5070783;28;20279;-68
2022/07/06 10:21:53;;;;;;;7.43;7.03;;;;;;;30.45;61.49;99201.22;5069361;28;20249;-68
2022/07/06 10:24:22;;;;;;;12.05;8.65;;;;;;;30.55;63.47;99201.00;5064065;28;20254;-68
2022/07/06 10:26:50;;;;;;;8.07;7.28;;;;;;;30.59;61.01;99197.81;5065684;28;20983;-68
2022/07/06 10:29:17;;;;;;;6.72;6.22;;;;;;;30.65;58.51;99196.28;5068446;28;20196;-68
2022/07/06 10:31:46;;;;;;;8.07;7.68;;;;;;;30.80;59.31;99191.81;5066982;28;20604;-68
2022/07/06 10:34:15;;;;;;;7.47;7.07;;;;;;;30.88;58.36;99194.41;5067868;28;20672;-67
2022/07/06 10:36:44;;;;;;;7.70;7.25;;;;;;;30.97;55.97;99190.69;5069628;28;20633;-67
2022/07/06 10:42:45;;;;;;;6.40;6.03;;;;;;;31.12;55.57;99188.88;5007846;28;20659;-67
2022/07/06 10:45:14;;;;;;;7.50;7.10;;;;;;;31.29;58.17;99183.38;5005959;28;20232;-67
2022/07/06 10:47:42;;;;;;;7.03;6.53;;;;;;;31.30;54.13;99187.69;5052029;28;20214;-68
2022/07/06 10:50:10;;;;;;;6.65;6.35;;;;;;;31.31;50.86;99186.69;5070947;28;20216;-67
2022/07/06 10:52:50;;;;;;;5.70;5.40;;;;;;;31.48;50.46;99172.22;5071437;28;20224;-68
2022/07/06 10:55:32;;;;;;;6.38;5.88;;;;;;;31.53;51.72;99177.84;5072004;28;20210;-69
2022/07/06 10:58:01;;;;;;;7.00;6.60;;;;;;;31.59;54.30;99185.03;5068416;28;20287;-68
2022/07/06 11:00:50;;;;;;;6.18;5.80;;;;;;;31.59;54.52;99174.44;5071581;28;20195;-69
2022/07/06 11:03:38;;;;;;;6.68;6.28;;;;;;;31.76;53.05;99172.41;5073831;28;20622;-68
2022/07/06 11:06:12;;;;;;;6.47;6.07;;;;;;;31.92;49.89;99175.66;5067178;28;20201;-67
2022/07/06 11:08:53;;;;;;;5.72;5.35;;;;;;;31.98;48.53;99168.75;5069210;28;20619;-69
2022/07/06 11:11:23;;;;;;;6.07;5.72;;;;;;;31.79;47.89;99174.69;5071298;28;20224;-65
2022/07/06 11:13:53;;;;;;;6.05;5.78;;;;;;;31.52;48.40;99162.94;5072659;28;20212;-66
2022/07/06 11:16:23;;;;;;;7.25;6.57;;;;;;;31.50;49.28;99164.97;5071766;28;20200;-71
2022/07/06 11:18:59;;;;;;;7.03;6.72;;;;;;;31.50;49.83;99160.50;5071764;28;20289;-71
2022/07/06 11:21:34;;;;;;;6.00;5.70;;;;;;;31.74;49.86;99156.66;5069963;28;20647;-71
2022/07/06 11:24:01;;;;;;;7.68;7.10;;;;;;;31.87;50.03;99153.34;5066242;28;20199;-71
2022/07/06 11:26:28;;;;;;;6.22;5.90;;;;;;;31.92;47.95;99154.44;5071529;28;20642;-70
2022/07/06 11:28:59;;;;;;;5.80;5.55;;;;;;;31.98;48.38;99158.97;5073532;28;20204;-69
2022/07/06 11:31:26;;;;;;;6.57;5.32;;;;;;;32.06;46.82;99166.00;5069807;28;20595;-66
2022/07/06 11:33:53;;;;;;;6.05;5.75;;;;;;;32.08;45.44;99170.13;5073700;28;20203;-69
2022/07/06 13:47:29;;;;;;;7.55;7.05;;;;;;;32.14;46.87;99055.31;5149374;27;20503;-71
2022/07/06 13:49:56;;;;;;;8.80;7.97;;;;;;;31.96;46.16;99054.91;5136020;27;20217;-69
2022/07/06 13:52:23;;;;;;;10.40;9.70;;;;;;;31.99;46.24;99051.88;5148962;27;20551;-71
2022/07/06 13:54:50;;;;;;;8.90;8.30;;;;;;;32.03;46.52;99053.13;5149011;27;20193;-72